Time;durP1;ratioP1;P1;durP2;ratioP2;P2;SDS_P1;SDS_P2;PMS_P1;PMS_P2;Temp;Humidity;BMP_temperature;BMP_pressure;BME280_temperature;BME280_humidity;BME280_pressure;Samples;Min_cycle;Max_cycle;Signal;HPM_P1;HPM_P2
2022/12/12 00:01:14;;;;;;;20.85;11.50;;;1.30;99.90;;;;;;5033896;28;20057;-50
2022/12/12 00:03:40;;;;;;;20.35;11.10;;;1.20;99.90;;;;;;5034075;28;20432;-45
2022/12/12 00:06:05;;;;;;;19.27;10.90;;;1.20;99.90;;;;;;5033750;28;20064;-41
2022/12/12 00:08:31;;;;;;;20.80;11.05;;;1.30;99.90;;;;;;5034168;28;20021;-41
2022/12/12 00:10:57;;;;;;;19.23;10.43;;;1.30;99.90;;;;;;5033746;28;20362;-40
2022/12/12 00:13:23;;;;;;;20.05;10.80;;;1.30;99.90;;;;;;5033352;28;20037;-40
2022/12/12 00:15:48;;;;;;;18.33;10.60;;;1.20;99.90;;;;;;5033629;28;20033;-45
2022/12/12 00:18:14;;;;;;;20.25;10.52;;;1.20;99.90;;;;;;5033450;28;20018;-40
2022/12/12 00:20:40;;;;;;;17.60;10.13;;;1.20;99.90;;;;;;5033417;28;20147;-40
2022/12/12 00:23:05;;;;;;;19.40;10.88;;;1.20;99.90;;;;;;5033833;28;20029;-41
2022/12/12 00:25:31;;;;;;;24.65;11.77;;;1.20;99.90;;;;;;5033170;28;20030;-47
2022/12/12 00:27:58;;;;;;;20.23;11.27;;;1.20;99.90;;;;;;5033220;28;20026;-41
2022/12/12 00:30:24;;;;;;;22.52;12.02;;;1.20;99.90;;;;;;5031999;28;20439;-44
2022/12/12 00:32:50;;;;;;;23.08;12.20;;;1.20;99.90;;;;;;5033414;28;20525;-42
2022/12/12 00:35:16;;;;;;;21.65;11.52;;;1.20;99.90;;;;;;5033201;28;20105;-43
2022/12/12 00:37:42;;;;;;;19.30;10.68;;;1.20;99.90;;;;;;5033446;28;20048;-45
2022/12/12 00:40:09;;;;;;;24.27;12.15;;;1.20;99.90;;;;;;5033284;28;20064;-42
2022/12/12 00:42:34;;;;;;;25.70;12.40;;;1.20;99.90;;;;;;5032939;28;20017;-40
2022/12/12 00:45:00;;;;;;;25.30;12.10;;;1.10;99.90;;;;;;5032952;28;20037;-46
2022/12/12 00:47:26;;;;;;;27.85;13.68;;;1.20;99.90;;;;;;5032285;28;20030;-44
2022/12/12 00:49:52;;;;;;;26.45;12.88;;;1.10;99.90;;;;;;5033248;28;20041;-43
2022/12/12 00:52:17;;;;;;;28.02;13.93;;;1.10;99.90;;;;;;5033179;28;20411;-47
2022/12/12 00:54:43;;;;;;;28.98;13.52;;;1.10;99.90;;;;;;5032852;28;20472;-44
2022/12/12 00:57:09;;;;;;;28.65;13.60;;;1.10;99.90;;;;;;5032567;28;20050;-39
2022/12/12 00:59:34;;;;;;;32.60;15.35;;;1.10;99.90;;;;;;5032449;28;20052;-38
2022/12/12 01:02:00;;;;;;;29.52;14.70;;;1.10;99.90;;;;;;5032691;28;20497;-38
2022/12/12 01:04:26;;;;;;;30.90;14.52;;;1.10;99.90;;;;;;5032577;28;20674;-42
2022/12/12 01:06:52;;;;;;;29.38;14.43;;;1.20;99.90;;;;;;5032852;28;20029;-39
2022/12/12 01:09:18;;;;;;;29.67;13.05;;;1.20;99.90;;;;;;5032590;28;20044;-38
2022/12/12 01:11:43;;;;;;;28.23;11.75;;;1.20;99.90;;;;;;5032555;28;20381;-38
2022/12/12 01:14:09;;;;;;;25.05;11.80;;;1.60;99.90;;;;;;5032566;28;20101;-41
2022/12/12 01:16:34;;;;;;;23.33;10.82;;;1.30;99.90;;;;;;5031160;28;20138;-40
2022/12/12 01:19:00;;;;;;;23.52;11.43;;;1.20;99.90;;;;;;5031274;28;20037;-39
2022/12/12 01:21:26;;;;;;;25.27;12.60;;;1.20;99.90;;;;;;5032390;28;20029;-46
2022/12/12 01:23:51;;;;;;;26.77;12.40;;;1.20;99.90;;;;;;5032489;28;20021;-39
2022/12/12 01:26:20;;;;;;;31.25;13.88;;;1.20;99.90;;;;;;5031978;28;20041;-39
2022/12/12 01:28:46;;;;;;;33.65;13.98;;;1.20;99.90;;;;;;5031658;28;20033;-39
2022/12/12 01:31:12;;;;;;;34.38;14.23;;;1.20;99.90;;;;;;5031887;28;20388;-42
2022/12/12 01:33:37;;;;;;;32.97;15.00;;;1.20;99.90;;;;;;5031570;28;20022;-49
2022/12/12 01:36:04;;;;;;;31.08;15.15;;;1.20;99.90;;;;;;5031902;28;20428;-39
2022/12/12 01:38:30;;;;;;;33.58;14.55;;;1.20;99.90;;;;;;5032059;28;20067;-48
2022/12/12 01:40:55;;;;;;;33.58;14.60;;;1.20;99.90;;;;;;5031909;28;20021;-39
2022/12/12 01:43:23;;;;;;;30.00;13.10;;;1.20;99.90;;;;;;5032154;28;20022;-39
2022/12/12 01:46:20;;;;;;;30.35;14.23;;;1.20;99.90;;;;;;5031268;28;20033;-41
2022/12/12 01:48:53;;;;;;;21.13;10.15;;;1.20;99.90;;;;;;5031742;28;20057;-41
2022/12/12 01:51:22;;;;;;;24.10;10.48;;;1.20;99.90;;;;;;5031625;28;20025;-39
2022/12/12 01:53:51;;;;;;;24.02;11.18;;;1.20;99.90;;;;;;5031808;28;20495;-39
2022/12/12 01:56:18;;;;;;;25.98;12.00;;;1.30;99.90;;;;;;5031517;28;20071;-39
2022/12/12 01:58:47;;;;;;;21.67;11.10;;;1.40;99.90;;;;;;5030791;28;20048;-43
2022/12/12 02:01:14;;;;;;;26.73;11.95;;;1.30;99.90;;;;;;5031220;28;20116;-42
2022/12/12 02:03:41;;;;;;;23.83;11.13;;;1.30;99.90;;;;;;5031786;28;20025;-40
2022/12/12 02:06:11;;;;;;;25.75;12.13;;;1.40;99.90;;;;;;5031290;28;20068;-41
2022/12/12 02:08:37;;;;;;;;;;;1.40;99.90;;;;;;5032029;28;20021;-40
2022/12/12 02:11:03;;;;;;;22.35;11.05;;;1.40;99.90;;;;;;5031398;28;19963;-38
2022/12/12 02:13:31;;;;;;;23.92;11.55;;;1.30;99.90;;;;;;5031416;28;20029;-39
2022/12/12 02:16:32;;;;;;;23.63;10.60;;;1.30;99.90;;;;;;5031399;28;20032;-42
2022/12/12 02:19:25;;;;;;;23.00;11.35;;;1.30;99.90;;;;;;5020493;28;20033;-39
2022/12/12 02:22:23;;;;;;;20.73;9.95;;;1.30;99.90;;;;;;5031072;28;20025;-39
2022/12/12 02:24:49;;;;;;;22.33;10.43;;;1.30;99.90;;;;;;5031132;28;20033;-43
2022/12/12 02:27:54;;;;;;;22.75;11.10;;;1.40;99.90;;;;;;5031091;28;20028;-45
2022/12/12 02:30:39;;;;;;;20.02;10.20;;;1.30;99.90;;;;;;5030877;28;20029;-58
2022/12/12 02:33:24;;;;;;;20.80;10.02;;;1.30;99.90;;;;;;5031280;28;20029;-49
2022/12/12 02:36:19;;;;;;;22.23;10.70;;;1.40;99.90;;;;;;5030773;28;20025;-50
2022/12/12 02:39:15;;;;;;;23.55;10.05;;;1.30;99.90;;;;;;5011510;28;20026;-43
2022/12/12 02:41:46;;;;;;;19.88;10.90;;;1.30;99.90;;;;;;5030678;28;20037;-48
2022/12/12 02:44:26;;;;;;;19.90;10.90;;;1.30;99.90;;;;;;5030674;28;20022;-48
2022/12/12 02:47:11;;;;;;;23.27;11.05;;;1.30;99.90;;;;;;5030783;28;20076;-39
2022/12/12 02:49:47;;;;;;;19.02;9.73;;;1.30;99.90;;;;;;5030915;28;20100;-53
2022/12/12 02:52:13;;;;;;;22.13;10.38;;;1.20;99.90;;;;;;5030702;28;20051;-41
2022/12/12 02:54:39;;;;;;;21.25;9.75;;;1.20;99.90;;;;;;5031355;28;20032;-44
2022/12/12 02:57:19;;;;;;;19.67;10.23;;;1.30;99.90;;;;;;5030622;28;20105;-53
2022/12/12 02:59:55;;;;;;;21.15;10.32;;;1.30;99.90;;;;;;5030855;28;20029;-43
2022/12/12 03:02:36;;;;;;;16.90;9.35;;;1.30;99.90;;;;;;5030656;28;20033;-50
2022/12/12 03:08:39;;;;;;;17.90;10.02;;;1.30;99.90;;;;;;5017641;28;20039;-39
2022/12/12 03:11:09;;;;;;;18.40;9.45;;;1.20;99.90;;;;;;5037095;28;20037;-39
2022/12/12 03:14:00;;;;;;;19.95;10.38;;;1.20;99.90;;;;;;5037274;28;20496;-39
2022/12/12 03:16:48;;;;;;;19.83;9.63;;;1.20;99.90;;;;;;5037050;28;20025;-39
2022/12/12 03:19:19;;;;;;;18.77;9.23;;;1.30;99.90;;;;;;5037097;28;20037;-41
2022/12/12 03:21:53;;;;;;;17.13;8.75;;;1.30;99.90;;;;;;5037151;28;20021;-39
2022/12/12 03:24:35;;;;;;;20.98;9.85;;;1.30;99.90;;;;;;5037088;28;20111;-41
2022/12/12 03:27:07;;;;;;;20.65;10.45;;;1.20;99.90;;;;;;5037179;28;20508;-39
2022/12/12 03:29:42;;;;;;;21.00;11.15;;;1.20;99.90;;;;;;5036979;28;20027;-39
2022/12/12 03:32:14;;;;;;;18.52;11.00;;;1.20;99.90;;;;;;5037089;28;20029;-40
2022/12/12 03:34:48;;;;;;;22.65;11.70;;;1.20;99.90;;;;;;5036889;28;20394;-39
2022/12/12 03:37:31;;;;;;;18.63;9.77;;;1.20;99.90;;;;;;5036731;28;20021;-39
2022/12/12 03:40:08;;;;;;;21.55;10.55;;;1.20;99.90;;;;;;5037046;28;20040;-39
2022/12/12 03:42:43;;;;;;;18.77;9.30;;;1.20;99.90;;;;;;5036930;28;20107;-40
2022/12/12 03:45:12;;;;;;;19.67;9.93;;;1.20;99.90;;;;;;5036508;28;20049;-39
2022/12/12 03:47:50;;;;;;;21.15;10.70;;;1.20;99.90;;;;;;5037053;28;20443;-39
2022/12/12 03:50:24;;;;;;;19.42;9.68;;;1.20;99.90;;;;;;5036805;28;20461;-39
2022/12/12 03:53:23;;;;;;;19.45;10.32;;;1.20;99.90;;;;;;5036859;28;20028;-39
2022/12/12 03:56:27;;;;;;;16.67;8.98;;;1.20;99.90;;;;;;5036787;28;20032;-50
2022/12/12 03:58:58;;;;;;;19.15;9.98;;;1.20;99.90;;;;;;5036585;28;20046;-41
2022/12/12 04:01:34;;;;;;;21.00;10.30;;;1.20;99.90;;;;;;5036570;28;20097;-42
2022/12/12 04:04:27;;;;;;;19.48;10.52;;;1.20;99.90;;;;;;5036843;28;20029;-42
2022/12/12 04:07:04;;;;;;;19.00;9.73;;;1.20;99.90;;;;;;5036563;28;20041;-42
2022/12/12 04:15:45;;;;;;;18.17;9.55;;;1.20;99.90;;;;;;5037021;28;20120;-41
2022/12/12 04:18:33;;;;;;;18.67;10.05;;;1.20;99.90;;;;;;5048780;28;20033;-40
2022/12/12 04:24:21;;;;;;;18.67;10.25;;;1.20;99.90;;;;;;5028757;28;20099;-39
2022/12/12 04:27:15;;;;;;;21.67;10.52;;;1.20;99.90;;;;;;5037925;28;20056;-40
2022/12/12 04:30:01;;;;;;;20.17;9.63;;;1.20;99.90;;;;;;5028486;28;20026;-39
2022/12/12 04:32:51;;;;;;;20.08;10.45;;;1.10;99.90;;;;;;5022793;28;20108;-40
2022/12/12 04:35:26;;;;;;;22.25;11.15;;;1.10;99.90;;;;;;5033098;28;20512;-40
2022/12/12 04:37:55;;;;;;;19.35;10.63;;;1.10;99.90;;;;;;5033234;28;20017;-39
2022/12/12 04:40:23;;;;;;;19.20;10.20;;;1.20;99.90;;;;;;5032958;28;20029;-40
2022/12/12 04:43:26;;;;;;;22.35;10.15;;;1.20;99.90;;;;;;5033070;28;20167;-39
2022/12/12 04:46:12;;;;;;;19.20;10.20;;;1.20;99.90;;;;;;5023357;28;20034;-39
2022/12/12 04:48:44;;;;;;;20.40;10.05;;;1.10;99.90;;;;;;5033050;28;20030;-42
2022/12/12 04:51:15;;;;;;;18.55;8.85;;;1.20;99.90;;;;;;5032998;28;20026;-39
2022/12/12 04:53:58;;;;;;;19.40;10.00;;;1.10;99.90;;;;;;5033129;28;20029;-39
2022/12/12 04:56:27;;;;;;;18.38;8.85;;;1.10;99.90;;;;;;5033072;28;20041;-39
2022/12/12 04:58:52;;;;;;;16.90;8.87;;;1.10;99.90;;;;;;5032385;28;20120;-39
2022/12/12 05:01:25;;;;;;;18.75;9.45;;;1.10;99.90;;;;;;5032529;28;20350;-39
2022/12/12 05:03:55;;;;;;;14.95;8.15;;;1.10;99.90;;;;;;5032542;28;20481;-40
2022/12/12 05:06:38;;;;;;;16.60;8.30;;;1.10;99.90;;;;;;5032665;28;20188;-40
2022/12/12 05:09:04;;;;;;;17.17;9.25;;;1.20;99.90;;;;;;5032445;28;20021;-40
2022/12/12 05:11:30;;;;;;;15.43;7.95;;;1.10;99.90;;;;;;5032660;28;20493;-44
2022/12/12 05:13:55;;;;;;;18.73;8.35;;;1.10;99.90;;;;;;5032584;28;20033;-42
2022/12/12 05:16:32;;;;;;;14.63;8.50;;;1.10;99.90;;;;;;5032405;28;20030;-39
2022/12/12 05:18:58;;;;;;;15.30;8.48;;;1.10;99.90;;;;;;5032551;28;20032;-42
2022/12/12 05:21:24;;;;;;;16.80;7.95;;;1.10;99.90;;;;;;5032480;28;20037;-39
2022/12/12 05:23:50;;;;;;;18.15;8.40;;;1.10;99.90;;;;;;5032353;28;20028;-39
2022/12/12 05:26:35;;;;;;;16.67;7.60;;;1.10;99.90;;;;;;5032093;28;20038;-40
2022/12/12 05:29:01;;;;;;;15.20;7.57;;;1.00;99.90;;;;;;5032019;28;20026;-39
2022/12/12 05:31:27;;;;;;;15.15;8.05;;;0.90;99.90;;;;;;5032188;28;20504;-39
2022/12/12 05:33:52;;;;;;;14.90;7.90;;;0.90;99.90;;;;;;5031993;28;20115;-39
2022/12/12 05:36:18;;;;;;;14.30;7.82;;;1.00;99.90;;;;;;5032050;28;20057;-39
2022/12/12 05:38:44;;;;;;;15.02;8.38;;;1.00;99.90;;;;;;5032175;28;20090;-39
2022/12/12 05:41:10;;;;;;;14.38;7.03;;;1.00;99.90;;;;;;5032026;28;20385;-43
2022/12/12 05:43:36;;;;;;;14.48;7.93;;;1.10;99.90;;;;;;5032037;28;20029;-39
2022/12/12 05:46:03;;;;;;;16.92;7.97;;;1.10;99.90;;;;;;5031917;28;20037;-43
2022/12/12 05:48:29;;;;;;;13.90;7.00;;;1.10;99.90;;;;;;5031889;28;20105;-45
2022/12/12 05:50:54;;;;;;;15.82;7.63;;;1.10;99.90;;;;;;5031902;28;20073;-45
2022/12/12 05:53:20;;;;;;;16.10;8.98;;;1.20;99.90;;;;;;5031910;28;20018;-40
2022/12/12 05:55:50;;;;;;;16.80;8.48;;;1.10;99.90;;;;;;5031771;28;20126;-39
2022/12/12 05:58:16;;;;;;;13.75;8.07;;;1.10;99.90;;;;;;5031089;28;20033;-39
2022/12/12 06:00:41;;;;;;;15.20;8.05;;;1.10;99.90;;;;;;5031835;28;20048;-39
2022/12/12 06:03:07;;;;;;;16.35;8.10;;;1.00;99.90;;;;;;5031486;28;20017;-40
2022/12/12 06:05:32;;;;;;;14.55;8.00;;;1.00;99.90;;;;;;5031461;28;20052;-53
2022/12/12 06:07:58;;;;;;;17.50;8.88;;;1.00;99.90;;;;;;5031498;28;20029;-44
2022/12/12 06:10:24;;;;;;;16.08;8.20;;;1.00;99.90;;;;;;5031405;28;20082;-39
2022/12/12 06:12:49;;;;;;;17.00;8.90;;;1.00;99.90;;;;;;5031080;28;20071;-43
2022/12/12 06:15:15;;;;;;;16.33;9.07;;;1.00;99.90;;;;;;5031560;28;20014;-46
2022/12/12 06:17:40;;;;;;;18.85;8.65;;;1.10;99.90;;;;;;5031388;28;20022;-39
2022/12/12 06:20:06;;;;;;;13.82;8.05;;;1.10;99.90;;;;;;5031349;28;20033;-44
2022/12/12 06:22:33;;;;;;;17.60;8.50;;;1.10;99.90;;;;;;5031099;28;20036;-40
2022/12/12 06:24:59;;;;;;;15.80;8.10;;;1.10;99.90;;;;;;5031136;28;20033;-45
2022/12/12 06:27:25;;;;;;;17.40;9.20;;;1.20;99.90;;;;;;5030887;28;20036;-40
2022/12/12 06:29:50;;;;;;;16.23;8.65;;;1.10;99.90;;;;;;5031171;28;20358;-40
2022/12/12 06:32:16;;;;;;;18.13;9.60;;;1.10;99.90;;;;;;5030976;28;20193;-44
2022/12/12 06:34:41;;;;;;;17.70;9.43;;;1.10;99.90;;;;;;5031087;28;20392;-42
2022/12/12 06:37:07;;;;;;;16.23;9.23;;;1.10;99.90;;;;;;5031094;28;20029;-43
2022/12/12 06:39:33;;;;;;;20.00;10.70;;;1.10;99.90;;;;;;5029673;28;20032;-40
2022/12/12 06:41:58;;;;;;;16.75;9.30;;;1.00;99.90;;;;;;5030845;28;20091;-42
2022/12/12 06:44:24;;;;;;;17.55;9.48;;;1.10;99.90;;;;;;5030155;28;20020;-47
2022/12/12 06:46:49;;;;;;;16.60;8.93;;;1.10;99.90;;;;;;5029576;28;20480;-43
2022/12/12 06:49:15;;;;;;;13.38;7.57;;;1.10;99.90;;;;;;5030891;28;20017;-39
2022/12/12 06:51:43;;;;;;;15.88;8.35;;;1.10;99.90;;;;;;5030868;28;20025;-39
2022/12/12 06:54:13;;;;;;;15.05;8.23;;;1.10;99.90;;;;;;5030642;28;20104;-45
2022/12/12 06:56:39;;;;;;;17.15;9.48;;;1.00;99.90;;;;;;5030852;28;20040;-40
2022/12/12 06:59:05;;;;;;;18.75;9.00;;;1.20;99.90;;;;;;5030376;28;20045;-41
2022/12/12 07:01:31;;;;;;;14.75;7.65;;;1.00;99.90;;;;;;5030622;28;20036;-40
2022/12/12 07:03:57;;;;;;;15.88;7.80;;;0.90;99.90;;;;;;5030598;28;20036;-41
2022/12/12 07:06:23;;;;;;;14.88;7.60;;;0.90;99.90;;;;;;5030593;28;20040;-39
2022/12/12 07:08:50;;;;;;;14.85;7.50;;;0.90;99.90;;;;;;5030624;28;20029;-40
2022/12/12 07:11:18;;;;;;;15.40;7.60;;;0.80;99.90;;;;;;5030556;28;20017;-48
2022/12/12 07:13:44;;;;;;;15.27;7.60;;;0.80;99.90;;;;;;5030445;28;20037;-40
2022/12/12 07:16:10;;;;;;;16.33;8.65;;;0.80;99.90;;;;;;5030162;28;20100;-40
2022/12/12 07:18:36;;;;;;;14.93;8.10;;;0.90;99.90;;;;;;5030555;28;20029;-42
2022/12/12 07:21:04;;;;;;;15.25;8.20;;;0.80;99.90;;;;;;5030072;28;20036;-39
2022/12/12 07:23:30;;;;;;;15.43;8.15;;;0.80;99.90;;;;;;5029832;28;20091;-42
2022/12/12 07:25:56;;;;;;;17.27;8.50;;;0.80;99.90;;;;;;5029334;28;20025;-39
2022/12/12 07:28:21;;;;;;;16.52;8.93;;;0.80;99.90;;;;;;5030281;28;20045;-39
2022/12/12 07:30:48;;;;;;;14.70;8.13;;;0.80;99.90;;;;;;5036087;28;20021;-39
2022/12/12 07:33:15;;;;;;;15.45;8.02;;;0.90;99.90;;;;;;5030730;28;20026;-40
2022/12/12 07:35:41;;;;;;;16.70;8.25;;;0.80;99.90;;;;;;5029546;28;20567;-41
2022/12/12 07:38:08;;;;;;;17.05;8.63;;;0.80;99.90;;;;;;5030044;28;20022;-39
2022/12/12 07:40:34;;;;;;;16.15;8.43;;;0.80;99.90;;;;;;5030084;28;20037;-39
2022/12/12 07:43:00;;;;;;;14.30;7.18;;;0.80;99.90;;;;;;5026077;28;20132;-39
2022/12/12 07:45:26;;;;;;;16.85;8.80;;;0.70;99.90;;;;;;5030125;28;20046;-41
2022/12/12 07:47:52;;;;;;;16.33;7.78;;;0.80;99.90;;;;;;5030080;28;20017;-39
2022/12/12 07:50:18;;;;;;;14.98;7.95;;;0.80;99.90;;;;;;5030058;28;20031;-40
2022/12/12 07:52:44;;;;;;;15.05;8.13;;;0.80;99.90;;;;;;5030132;28;20076;-41
2022/12/12 07:55:10;;;;;;;19.80;8.68;;;0.70;99.90;;;;;;5028253;28;20041;-41
2022/12/12 07:57:36;;;;;;;15.75;8.57;;;0.80;99.90;;;;;;5033092;28;20045;-40
2022/12/12 08:00:05;;;;;;;17.48;8.50;;;0.80;99.90;;;;;;5033841;28;20507;-42
2022/12/12 08:02:31;;;;;;;14.25;7.60;;;0.80;99.90;;;;;;5041733;28;20524;-45
2022/12/12 08:04:56;;;;;;;15.77;7.72;;;0.80;99.90;;;;;;5049045;28;20116;-40
2022/12/12 08:07:23;;;;;;;16.83;8.20;;;0.70;99.90;;;;;;5046727;28;20122;-42
2022/12/12 08:09:48;;;;;;;15.55;8.90;;;0.70;99.90;;;;;;5045153;28;20029;-40
2022/12/12 08:12:14;;;;;;;16.48;8.43;;;0.70;99.90;;;;;;5042217;28;20040;-47
2022/12/12 08:14:40;;;;;;;14.10;7.60;;;0.70;99.90;;;;;;5033439;28;20068;-40
2022/12/12 08:17:06;;;;;;;15.02;8.18;;;0.70;99.90;;;;;;5039435;28;20044;-40
2022/12/12 08:19:32;;;;;;;15.02;8.18;;;0.70;99.90;;;;;;5038394;28;20507;-42
2022/12/12 08:21:58;;;;;;;15.38;7.40;;;0.80;99.90;;;;;;5045906;28;20088;-42
2022/12/12 08:24:23;;;;;;;15.45;8.40;;;0.80;99.90;;;;;;5046121;28;20431;-45
2022/12/12 08:26:50;;;;;;;12.88;7.50;;;0.80;99.90;;;;;;5040597;28;20029;-41
2022/12/12 08:29:15;;;;;;;16.35;9.15;;;0.80;99.90;;;;;;5049005;28;20025;-40
2022/12/12 08:31:41;;;;;;;15.73;8.63;;;0.90;99.90;;;;;;5049299;28;20091;-40
2022/12/12 08:34:07;;;;;;;14.13;8.07;;;0.90;99.90;;;;;;5047588;28;20025;-41
2022/12/12 08:36:34;;;;;;;16.70;8.60;;;0.90;99.90;;;;;;5047105;28;20091;-40
2022/12/12 08:39:08;;;;;;;22.25;13.77;;;0.90;99.90;;;;;;5051185;28;20488;-42
2022/12/12 08:41:38;;;;;;;16.10;10.98;;;1.00;99.90;;;;;;5045863;28;20052;-40
2022/12/12 08:44:04;;;;;;;15.50;8.90;;;1.00;99.90;;;;;;5042950;28;20021;-40
2022/12/12 08:46:29;;;;;;;13.82;8.25;;;1.00;99.90;;;;;;5039648;28;20033;-40
2022/12/12 08:48:55;;;;;;;15.68;7.72;;;1.00;99.90;;;;;;5032801;28;20385;-40
2022/12/12 08:51:21;;;;;;;13.77;7.45;;;1.10;99.90;;;;;;5033073;28;20038;-40
2022/12/12 08:53:49;;;;;;;14.43;7.82;;;1.10;99.90;;;;;;5032960;28;20032;-41
2022/12/12 08:56:15;;;;;;;12.35;7.32;;;1.20;99.90;;;;;;5037782;28;20539;-41
2022/12/12 08:58:41;;;;;;;15.15;9.43;;;1.20;99.90;;;;;;5035198;28;20515;-48
2022/12/12 09:01:15;;;;;;;15.40;8.63;;;1.20;99.90;;;;;;5032113;28;20041;-40
2022/12/12 09:03:42;;;;;;;14.88;7.97;;;1.20;99.90;;;;;;5032822;28;20053;-44
2022/12/12 09:06:09;;;;;;;15.70;7.68;;;1.30;99.90;;;;;;5039122;28;20447;-40
2022/12/12 09:08:35;;;;;;;16.50;7.68;;;1.20;99.90;;;;;;5049533;28;20067;-38
2022/12/12 09:11:02;;;;;;;13.05;7.47;;;1.30;99.90;;;;;;5045959;28;20025;-40
2022/12/12 09:13:29;;;;;;;14.32;8.18;;;1.30;99.90;;;;;;5041288;28;20029;-45
2022/12/12 09:15:55;;;;;;;15.30;7.15;;;1.40;99.90;;;;;;5033100;28;20084;-39
2022/12/12 09:18:21;;;;;;;12.82;7.15;;;1.40;99.90;;;;;;5044339;28;20021;-40
2022/12/12 09:20:48;;;;;;;12.85;6.93;;;1.40;99.90;;;;;;5043858;28;20028;-42
2022/12/12 09:23:15;;;;;;;12.30;7.07;;;1.40;99.90;;;;;;5048700;28;20472;-40
2022/12/12 09:25:40;;;;;;;14.90;8.25;;;1.50;99.90;;;;;;5040488;28;20043;-43
2022/12/12 09:28:07;;;;;;;16.13;9.10;;;1.60;99.90;;;;;;5043984;28;20026;-44
2022/12/12 09:30:32;;;;;;;14.30;8.93;;;1.70;99.90;;;;;;5048311;28;20013;-45
2022/12/12 09:32:58;;;;;;;14.70;8.73;;;1.80;99.90;;;;;;5044738;28;20029;-49
2022/12/12 09:35:24;;;;;;;16.23;8.75;;;1.80;99.90;;;;;;5042625;28;20028;-48
2022/12/12 09:37:49;;;;;;;18.85;11.88;;;1.80;99.90;;;;;;5031984;28;20029;-46
2022/12/12 09:40:30;;;;;;;13.38;8.57;;;1.70;99.90;;;;;;5047074;28;20036;-52
2022/12/12 09:42:56;;;;;;;13.45;7.90;;;1.70;99.90;;;;;;5040284;28;20032;-41
2022/12/12 09:45:22;;;;;;;14.60;7.95;;;1.70;99.90;;;;;;5039485;28;20792;-46
2022/12/12 09:47:53;;;;;;;14.82;8.15;;;1.80;99.90;;;;;;5040142;28;20424;-41
2022/12/12 09:50:35;;;;;;;14.18;8.88;;;1.90;99.90;;;;;;5035089;28;20384;-45
2022/12/12 09:53:04;;;;;;;15.20;9.27;;;1.90;99.90;;;;;;5024172;28;20032;-42
2022/12/12 09:55:39;;;;;;;16.92;9.80;;;1.90;99.90;;;;;;5034415;28;20044;-42
2022/12/12 09:58:16;;;;;;;21.15;11.98;;;1.90;99.90;;;;;;5033635;28;20073;-45
2022/12/12 10:00:56;;;;;;;19.08;10.32;;;1.90;99.90;;;;;;5031779;28;20026;-41
2022/12/12 10:03:44;;;;;;;17.08;9.63;;;1.70;99.90;;;;;;5031421;28;20101;-39
2022/12/12 10:06:11;;;;;;;15.18;7.80;;;1.60;99.90;;;;;;5031433;28;20045;-44
2022/12/12 10:08:51;;;;;;;17.95;9.43;;;1.50;99.90;;;;;;5031174;28;20083;-43
2022/12/12 10:11:49;;;;;;;17.05;8.80;;;1.40;99.90;;;;;;5031504;28;20056;-51
2022/12/12 10:14:42;;;;;;;17.60;9.10;;;1.40;99.90;;;;;;5028449;28;20040;-46
2022/12/12 10:17:15;;;;;;;16.42;8.65;;;1.60;99.90;;;;;;5031385;28;20030;-40
2022/12/12 10:19:52;;;;;;;14.15;7.88;;;1.70;99.90;;;;;;5061794;28;20025;-42
2022/12/12 10:22:41;;;;;;;16.83;8.18;;;1.80;99.90;;;;;;5031071;28;20037;-42
2022/12/12 10:25:26;;;;;;;14.98;8.70;;;1.80;99.90;;;;;;5034990;28;20024;-40
2022/12/12 10:28:08;;;;;;;14.35;8.27;;;1.80;99.90;;;;;;5033639;28;20043;-43
2022/12/12 10:30:39;;;;;;;15.63;8.75;;;1.80;99.90;;;;;;5022457;28;20075;-40
2022/12/12 10:33:52;;;;;;;17.45;9.73;;;1.90;99.90;;;;;;5030785;28;20026;-42
2022/12/12 10:36:52;;;;;;;16.00;9.23;;;1.90;99.90;;;;;;5033154;28;20393;-43
2022/12/12 10:39:48;;;;;;;19.35;11.77;;;2.00;99.90;;;;;;5039356;28;20028;-43
2022/12/12 10:42:35;;;;;;;20.75;10.93;;;2.20;99.90;;;;;;5027648;28;20095;-48
2022/12/12 10:45:06;;;;;;;19.17;10.43;;;2.30;99.90;;;;;;5040380;28;20021;-42
2022/12/12 10:47:33;;;;;;;19.50;10.52;;;2.40;99.90;;;;;;5030163;28;20052;-41
2022/12/12 10:50:08;;;;;;;20.95;12.20;;;2.40;99.90;;;;;;5030518;28;20021;-41
2022/12/12 10:52:34;;;;;;;21.17;11.25;;;2.50;99.90;;;;;;5034941;28;20095;-46
2022/12/12 10:55:00;;;;;;;19.45;11.73;;;2.60;99.90;;;;;;5033925;28;20473;-39
2022/12/12 10:57:34;;;;;;;19.67;11.25;;;2.50;99.90;;;;;;5040281;28;20046;-44
2022/12/12 11:00:14;;;;;;;22.60;11.55;;;2.40;99.90;;;;;;5035506;28;20123;-43
2022/12/12 11:02:43;;;;;;;21.80;11.13;;;2.30;99.90;;;;;;5044264;28;20066;-46
2022/12/12 11:05:25;;;;;;;20.92;11.60;;;2.20;99.90;;;;;;5047414;28;20484;-41
2022/12/12 11:08:04;;;;;;;20.58;11.77;;;2.20;99.90;;;;;;5045332;28;20032;-40
2022/12/12 11:10:32;;;;;;;19.40;11.23;;;2.20;99.90;;;;;;5041060;28;20107;-40
2022/12/12 11:13:08;;;;;;;20.92;11.05;;;2.30;99.90;;;;;;5029293;28;20031;-40
2022/12/12 11:15:58;;;;;;;19.95;11.35;;;2.30;99.90;;;;;;5035614;28;20021;-42
2022/12/12 11:18:25;;;;;;;20.35;11.40;;;2.30;99.90;;;;;;5037357;28;20043;-40
2022/12/12 11:21:10;;;;;;;21.70;11.98;;;2.40;99.90;;;;;;5045995;28;20029;-40
2022/12/12 11:23:46;;;;;;;22.90;11.82;;;2.30;99.90;;;;;;5045958;28;20492;-39
2022/12/12 11:26:16;;;;;;;18.65;10.23;;;2.60;99.90;;;;;;5044103;28;20156;-40
2022/12/12 11:28:45;;;;;;;20.20;11.38;;;2.60;99.90;;;;;;5044548;28;20032;-40
2022/12/12 11:31:15;;;;;;;20.70;11.20;;;2.50;99.90;;;;;;5046401;28;20057;-40
2022/12/12 11:33:51;;;;;;;19.95;11.30;;;2.60;99.90;;;;;;5049808;28;20018;-39
2022/12/12 11:36:38;;;;;;;22.90;12.43;;;2.60;99.90;;;;;;5046462;28;20071;-40
2022/12/12 11:39:27;;;;;;;21.08;11.07;;;2.60;99.90;;;;;;5046084;28;20083;-48
2022/12/12 11:42:20;;;;;;;18.27;10.57;;;2.60;99.90;;;;;;5043908;28;20017;-39
2022/12/12 11:45:07;;;;;;;19.17;11.20;;;2.60;99.90;;;;;;5045549;28;20040;-39
2022/12/12 11:47:41;;;;;;;21.88;11.35;;;2.60;99.90;;;;;;5034249;28;20037;-39
2022/12/12 11:50:28;;;;;;;20.40;12.23;;;2.50;99.90;;;;;;5039144;28;20534;-40
2022/12/12 11:53:01;;;;;;;22.45;11.57;;;2.50;99.90;;;;;;5040961;28;20080;-44
2022/12/12 11:55:48;;;;;;;21.65;12.15;;;2.50;99.90;;;;;;5033819;28;20040;-46
2022/12/12 11:58:28;;;;;;;17.95;10.10;;;2.50;99.90;;;;;;5033628;28;20072;-42
2022/12/12 12:01:00;;;;;;;18.23;9.93;;;2.60;99.90;;;;;;5033862;28;20021;-47
2022/12/12 12:03:40;;;;;;;18.67;10.57;;;2.70;99.90;;;;;;5033688;28;20049;-40
2022/12/12 12:06:50;;;;;;;18.60;10.25;;;2.90;99.90;;;;;;5033950;28;20034;-45
2022/12/12 12:09:50;;;;;;;23.17;11.30;;;2.90;99.90;;;;;;5046136;28;20550;-47
2022/12/12 12:12:23;;;;;;;18.00;10.07;;;3.00;99.90;;;;;;5045304;28;20149;-43
2022/12/12 12:15:05;;;;;;;18.42;9.60;;;2.80;99.90;;;;;;5033540;28;20495;-43
2022/12/12 12:17:56;;;;;;;18.58;10.00;;;2.80;99.90;;;;;;5031946;28;20029;-44
2022/12/12 12:20:28;;;;;;;16.42;10.02;;;2.70;99.90;;;;;;5032863;28;20017;-43
2022/12/12 12:23:04;;;;;;;19.15;10.77;;;2.60;99.90;;;;;;5046488;28;20025;-47
2022/12/12 12:25:45;;;;;;;17.85;10.65;;;2.60;99.90;;;;;;5048662;28;20120;-44
2022/12/12 12:28:25;;;;;;;20.02;10.45;;;2.60;99.90;;;;;;5033020;28;20032;-41
2022/12/12 12:31:06;;;;;;;21.08;11.95;;;2.50;99.90;;;;;;5033143;28;20018;-41
2022/12/12 12:33:32;;;;;;;21.40;11.60;;;2.30;99.90;;;;;;5025593;28;20113;-41
2022/12/12 12:36:24;;;;;;;20.73;11.15;;;2.30;99.90;;;;;;5032539;28;20116;-41
2022/12/12 12:38:59;;;;;;;21.25;11.05;;;2.40;99.90;;;;;;5028005;28;20017;-39
2022/12/12 12:41:30;;;;;;;22.67;11.88;;;2.30;99.90;;;;;;5029891;28;20029;-40
2022/12/12 12:44:29;;;;;;;20.10;10.82;;;2.20;99.90;;;;;;5032239;28;20041;-44
2022/12/12 12:47:15;;;;;;;19.55;10.43;;;2.20;99.90;;;;;;5042187;28;20033;-40
2022/12/12 12:50:11;;;;;;;20.73;11.40;;;2.10;99.90;;;;;;5032870;28;20030;-40
2022/12/12 12:52:54;;;;;;;20.63;11.55;;;2.10;99.90;;;;;;5032723;28;20108;-40
2022/12/12 12:55:25;;;;;;;23.13;11.85;;;2.10;99.90;;;;;;5032870;28;20095;-41
2022/12/12 12:57:51;;;;;;;21.77;10.88;;;2.00;99.90;;;;;;5032876;28;20038;-45
2022/12/12 13:00:27;;;;;;;20.90;11.68;;;2.00;99.90;;;;;;5032376;28;20540;-41
2022/12/12 13:03:11;;;;;;;22.45;11.73;;;2.00;99.90;;;;;;5037529;28;20025;-41
2022/12/12 13:05:45;;;;;;;28.45;12.82;;;2.10;99.90;;;;;;5049481;28;20086;-41
2022/12/12 13:08:28;;;;;;;18.92;10.23;;;2.20;99.90;;;;;;5048795;28;20395;-39
2022/12/12 13:11:12;;;;;;;23.27;12.70;;;2.30;99.90;;;;;;5049179;28;20523;-39
2022/12/12 13:13:41;;;;;;;21.35;11.30;;;2.50;99.90;;;;;;5050502;28;20021;-39
2022/12/12 13:16:14;;;;;;;20.23;11.52;;;2.50;99.90;;;;;;5050566;28;20112;-42
2022/12/12 13:18:43;;;;;;;19.77;10.85;;;2.40;99.90;;;;;;5048554;28;20025;-39
2022/12/12 13:21:30;;;;;;;21.93;11.83;;;2.40;99.90;;;;;;5046964;28;20030;-38
2022/12/12 13:24:26;;;;;;;21.52;11.65;;;2.40;99.90;;;;;;5048101;28;20396;-44